sensor_id;sensor_type;location;lat;lon;timestamp;pressure;altitude;pressure_sealevel;temperature;humidity
66560;BME280;53413;49.878;8.142;2022-07-01T00:00:31;99869.22;;;20.19;68.98
66560;BME280;53413;49.878;8.142;2022-07-01T00:02:57;99886.41;;;20.15;67.32
66560;BME280;53413;49.878;8.142;2022-07-01T00:05:22;99908.41;;;20.17;67.21
66560;BME280;53413;49.878;8.142;2022-07-01T00:07:48;99923.53;;;20.17;67.01
66560;BME280;53413;49.878;8.142;2022-07-01T00:10:14;99929.34;;;20.10;66.42
66560;BME280;53413;49.878;8.142;2022-07-01T00:12:39;99944.47;;;20.10;66.90
66560;BME280;53413;49.878;8.142;2022-07-01T00:15:05;99948.91;;;20.09;67.82
66560;BME280;53413;49.878;8.142;2022-07-01T00:17:31;99954.50;;;20.06;68.76
66560;BME280;53413;49.878;8.142;2022-07-01T00:19:56;99961.38;;;19.97;68.29
66560;BME280;53413;49.878;8.142;2022-07-01T00:22:21;99963.31;;;19.95;68.48
66560;BME280;53413;49.878;8.142;2022-07-01T00:24:47;99955.94;;;19.88;69.26
66560;BME280;53413;49.878;8.142;2022-07-01T00:27:14;99952.78;;;19.82;69.10
66560;BME280;53413;49.878;8.142;2022-07-01T00:29:41;99952.41;;;19.76;69.12
66560;BME280;53413;49.878;8.142;2022-07-01T00:32:06;99946.50;;;19.72;69.42
66560;BME280;53413;49.878;8.142;2022-07-01T00:34:32;99948.50;;;19.68;70.99
66560;BME280;53413;49.878;8.142;2022-07-01T00:36:57;99946.56;;;19.59;69.71
66560;BME280;53413;49.878;8.142;2022-07-01T00:39:24;99940.28;;;19.60;71.08
66560;BME280;53413;49.878;8.142;2022-07-01T00:41:49;99920.59;;;19.63;71.16
66560;BME280;53413;49.878;8.142;2022-07-01T00:44:16;99911.56;;;19.65;70.20
66560;BME280;53413;49.878;8.142;2022-07-01T00:46:42;99921.22;;;19.66;72.37
66560;BME280;53413;49.878;8.142;2022-07-01T00:49:08;99930.53;;;19.72;71.19
66560;BME280;53413;49.878;8.142;2022-07-01T00:51:33;99934.03;;;19.73;71.53
66560;BME280;53413;49.878;8.142;2022-07-01T00:53:59;99918.81;;;19.75;71.34
66560;BME280;53413;49.878;8.142;2022-07-01T00:56:25;99921.69;;;19.72;70.09
66560;BME280;53413;49.878;8.142;2022-07-01T00:58:51;99917.72;;;19.66;69.96
66560;BME280;53413;49.878;8.142;2022-07-01T01:01:16;99922.66;;;19.71;70.81
66560;BME280;53413;49.878;8.142;2022-07-01T01:03:42;99935.47;;;19.65;70.83
66560;BME280;53413;49.878;8.142;2022-07-01T01:06:09;99942.94;;;19.60;70.06
66560;BME280;53413;49.878;8.142;2022-07-01T01:08:35;99932.31;;;19.60;70.69
66560;BME280;53413;49.878;8.142;2022-07-01T01:11:03;99939.09;;;19.64;70.47
66560;BME280;53413;49.878;8.142;2022-07-01T01:13:29;99947.53;;;19.58;70.65
66560;BME280;53413;49.878;8.142;2022-07-01T01:15:54;99963.84;;;19.53;70.39
66560;BME280;53413;49.878;8.142;2022-07-01T01:18:19;99971.34;;;19.48;70.81
66560;BME280;53413;49.878;8.142;2022-07-01T01:20:45;99976.00;;;19.45;70.44
66560;BME280;53413;49.878;8.142;2022-07-01T01:23:10;99983.38;;;19.41;70.02
66560;BME280;53413;49.878;8.142;2022-07-01T01:25:36;99973.63;;;19.42;70.77
66560;BME280;53413;49.878;8.142;2022-07-01T01:28:02;99975.75;;;19.36;70.29
66560;BME280;53413;49.878;8.142;2022-07-01T01:30:28;99982.78;;;19.37;70.71
66560;BME280;53413;49.878;8.142;2022-07-01T01:32:54;99990.22;;;19.32;70.26
66560;BME280;53413;49.878;8.142;2022-07-01T01:35:20;99988.53;;;19.31;70.20
66560;BME280;53413;49.878;8.142;2022-07-01T01:37:46;99983.72;;;19.36;69.85
66560;BME280;53413;49.878;8.142;2022-07-01T01:40:12;99980.50;;;19.44;71.98
66560;BME280;53413;49.878;8.142;2022-07-01T01:42:41;99970.34;;;19.49;70.82
66560;BME280;53413;49.878;8.142;2022-07-01T01:45:07;99973.88;;;19.50;70.29
66560;BME280;53413;49.878;8.142;2022-07-01T01:47:33;99973.00;;;19.49;69.74
66560;BME280;53413;49.878;8.142;2022-07-01T01:49:58;99970.97;;;19.42;69.78
66560;BME280;53413;49.878;8.142;2022-07-01T01:52:24;99972.16;;;19.37;70.07
66560;BME280;53413;49.878;8.142;2022-07-01T01:54:49;99972.16;;;19.37;70.19
66560;BME280;53413;49.878;8.142;2022-07-01T01:57:15;99971.91;;;19.41;69.88
66560;BME280;53413;49.878;8.142;2022-07-01T01:59:41;99977.47;;;19.37;69.48
66560;BME280;53413;49.878;8.142;2022-07-01T02:02:06;99979.50;;;19.34;70.06
66560;BME280;53413;49.878;8.142;2022-07-01T02:04:32;99967.19;;;19.33;70.03
66560;BME280;53413;49.878;8.142;2022-07-01T02:06:58;99974.06;;;19.35;70.09
66560;BME280;53413;49.878;8.142;2022-07-01T02:09:24;99977.91;;;19.31;70.34
66560;BME280;53413;49.878;8.142;2022-07-01T02:11:49;99973.59;;;19.30;70.81
66560;BME280;53413;49.878;8.142;2022-07-01T02:14:15;99977.06;;;19.31;69.85
66560;BME280;53413;49.878;8.142;2022-07-01T02:16:41;99981.03;;;19.25;69.53
66560;BME280;53413;49.878;8.142;2022-07-01T02:19:06;99975.22;;;19.20;69.47
66560;BME280;53413;49.878;8.142;2022-07-01T02:21:31;99976.06;;;19.20;70.04
66560;BME280;53413;49.878;8.142;2022-07-01T02:23:57;99975.94;;;19.22;70.15
66560;BME280;53413;49.878;8.142;2022-07-01T02:26:22;99986.97;;;19.29;69.42
66560;BME280;53413;49.878;8.142;2022-07-01T02:28:48;99986.88;;;19.30;69.14
66560;BME280;53413;49.878;8.142;2022-07-01T02:31:13;99989.75;;;19.27;69.08
66560;BME280;53413;49.878;8.142;2022-07-01T02:33:38;99983.91;;;19.22;69.67
66560;BME280;53413;49.878;8.142;2022-07-01T02:36:04;99980.53;;;19.20;70.57
66560;BME280;53413;49.878;8.142;2022-07-01T02:38:29;99984.41;;;19.16;69.79
66560;BME280;53413;49.878;8.142;2022-07-01T02:40:55;99975.16;;;19.08;70.67
66560;BME280;53413;49.878;8.142;2022-07-01T02:43:20;99969.63;;;19.12;70.93
66560;BME280;53413;49.878;8.142;2022-07-01T02:45:46;99971.78;;;19.06;70.70
66560;BME280;53413;49.878;8.142;2022-07-01T02:48:11;99970.34;;;19.02;69.49
66560;BME280;53413;49.878;8.142;2022-07-01T02:50:37;99971.41;;;19.00;68.97
66560;BME280;53413;49.878;8.142;2022-07-01T02:53:02;99976.59;;;19.01;69.98
66560;BME280;53413;49.878;8.142;2022-07-01T02:55:28;99960.38;;;18.93;69.53
66560;BME280;53413;49.878;8.142;2022-07-01T02:57:54;99967.47;;;18.92;70.03
66560;BME280;53413;49.878;8.142;2022-07-01T03:00:20;99969.72;;;18.86;70.10
66560;BME280;53413;49.878;8.142;2022-07-01T03:02:46;99965.09;;;18.76;70.01
66560;BME280;53413;49.878;8.142;2022-07-01T03:05:11;99967.25;;;18.71;70.15
66560;BME280;53413;49.878;8.142;2022-07-01T03:07:38;99960.47;;;18.67;71.20
66560;BME280;53413;49.878;8.142;2022-07-01T03:10:04;99957.09;;;18.65;70.75
66560;BME280;53413;49.878;8.142;2022-07-01T03:12:30;99956.97;;;18.67;70.49
66560;BME280;53413;49.878;8.142;2022-07-01T03:17:31;99943.06;;;18.63;71.64
66560;BME280;53413;49.878;8.142;2022-07-01T03:19:57;99938.38;;;18.67;70.71
66560;BME280;53413;49.878;8.142;2022-07-01T03:22:25;99946.97;;;18.70;71.02
66560;BME280;53413;49.878;8.142;2022-07-01T03:24:51;99935.84;;;18.65;71.25
66560;BME280;53413;49.878;8.142;2022-07-01T03:27:18;99944.78;;;18.64;71.12
66560;BME280;53413;49.878;8.142;2022-07-01T03:29:43;99950.91;;;18.65;70.40
66560;BME280;53413;49.878;8.142;2022-07-01T03:32:10;99954.31;;;18.67;70.37
66560;BME280;53413;49.878;8.142;2022-07-01T03:34:37;99964.19;;;18.65;70.32
66560;BME280;53413;49.878;8.142;2022-07-01T03:37:04;99963.22;;;18.66;70.33
66560;BME280;53413;49.878;8.142;2022-07-01T03:39:30;99955.38;;;18.64;71.10
66560;BME280;53413;49.878;8.142;2022-07-01T03:41:55;99960.69;;;18.64;70.89
66560;BME280;53413;49.878;8.142;2022-07-01T03:44:20;99968.78;;;18.63;70.79
66560;BME280;53413;49.878;8.142;2022-07-01T03:46:46;99963.47;;;18.63;70.51
66560;BME280;53413;49.878;8.142;2022-07-01T03:49:11;99969.50;;;18.65;70.96
66560;BME280;53413;49.878;8.142;2022-07-01T03:51:37;99969.63;;;18.63;70.81
66560;BME280;53413;49.878;8.142;2022-07-01T03:54:02;99979.28;;;18.64;70.66
66560;BME280;53413;49.878;8.142;2022-07-01T03:56:46;99989.88;;;18.64;70.71
66560;BME280;53413;49.878;8.142;2022-07-01T03:59:11;99979.16;;;18.66;70.44
66560;BME280;53413;49.878;8.142;2022-07-01T04:01:37;99980.22;;;18.63;70.17
66560;BME280;53413;49.878;8.142;2022-07-01T04:04:02;99964.03;;;18.55;70.94
66560;BME280;53413;49.878;8.142;2022-07-01T04:06:28;99956.91;;;18.55;70.82
66560;BME280;53413;49.878;8.142;2022-07-01T04:08:53;99973.69;;;18.56;70.66
66560;BME280;53413;49.878;8.142;2022-07-01T04:11:19;99964.13;;;18.53;70.72
66560;BME280;53413;49.878;8.142;2022-07-01T04:13:45;99959.69;;;18.54;70.48
66560;BME280;53413;49.878;8.142;2022-07-01T04:16:19;99955.44;;;18.51;70.43
66560;BME280;53413;49.878;8.142;2022-07-01T04:18:45;99964.97;;;18.54;70.43
66560;BME280;53413;49.878;8.142;2022-07-01T04:21:11;99966.97;;;18.63;70.22
66560;BME280;53413;49.878;8.142;2022-07-01T04:23:56;99970.84;;;18.70;70.42
66560;BME280;53413;49.878;8.142;2022-07-01T04:26:24;99986.56;;;18.73;70.38
66560;BME280;53413;49.878;8.142;2022-07-01T04:28:51;99996.84;;;18.78;70.11
66560;BME280;53413;49.878;8.142;2022-07-01T04:31:17;99997.97;;;18.87;69.12
66560;BME280;53413;49.878;8.142;2022-07-01T04:33:44;99987.13;;;18.90;68.80
66560;BME280;53413;49.878;8.142;2022-07-01T04:36:10;99998.50;;;18.92;68.73
66560;BME280;53413;49.878;8.142;2022-07-01T04:38:35;100009.13;;;18.92;68.27
66560;BME280;53413;49.878;8.142;2022-07-01T04:41:00;100019.09;;;19.01;67.63
66560;BME280;53413;49.878;8.142;2022-07-01T04:43:44;100023.84;;;19.09;67.57
66560;BME280;53413;49.878;8.142;2022-07-01T04:46:09;100027.13;;;19.13;67.50
66560;BME280;53413;49.878;8.142;2022-07-01T04:48:35;100028.06;;;19.12;67.55
66560;BME280;53413;49.878;8.142;2022-07-01T04:51:00;100034.00;;;19.15;67.54
66560;BME280;53413;49.878;8.142;2022-07-01T04:53:25;100033.56;;;19.21;67.08
66560;BME280;53413;49.878;8.142;2022-07-01T04:55:52;100024.66;;;19.34;66.79
66560;BME280;53413;49.878;8.142;2022-07-01T04:58:21;100023.97;;;19.43;66.84
66560;BME280;53413;49.878;8.142;2022-07-01T05:00:46;100026.41;;;19.46;65.25
66560;BME280;53413;49.878;8.142;2022-07-01T05:03:14;100029.09;;;19.58;65.06
66560;BME280;53413;49.878;8.142;2022-07-01T05:05:39;100039.16;;;19.65;64.39
66560;BME280;53413;49.878;8.142;2022-07-01T05:08:05;100045.69;;;19.73;64.61
66560;BME280;53413;49.878;8.142;2022-07-01T05:10:30;100052.72;;;19.85;64.02
66560;BME280;53413;49.878;8.142;2022-07-01T05:12:56;100049.16;;;19.97;63.45
66560;BME280;53413;49.878;8.142;2022-07-01T05:15:21;100041.63;;;19.91;63.04
66560;BME280;53413;49.878;8.142;2022-07-01T05:17:46;100045.03;;;20.05;63.29
66560;BME280;53413;49.878;8.142;2022-07-01T05:20:30;100046.88;;;20.15;62.73
66560;BME280;53413;49.878;8.142;2022-07-01T05:23:14;100057.16;;;20.20;62.33
66560;BME280;53413;49.878;8.142;2022-07-01T05:25:39;100068.31;;;20.25;61.93
66560;BME280;53413;49.878;8.142;2022-07-01T05:28:06;100076.66;;;20.43;61.41
66560;BME280;53413;49.878;8.142;2022-07-01T05:30:31;100070.97;;;20.59;61.43
66560;BME280;53413;49.878;8.142;2022-07-01T05:32:56;100071.56;;;20.74;60.81
66560;BME280;53413;49.878;8.142;2022-07-01T05:35:22;100071.31;;;20.89;60.04
66560;BME280;53413;49.878;8.142;2022-07-01T05:37:47;100063.88;;;21.04;59.35
66560;BME280;53413;49.878;8.142;2022-07-01T05:40:13;100046.75;;;21.18;58.61
66560;BME280;53413;49.878;8.142;2022-07-01T05:42:38;100040.69;;;21.48;58.10
66560;BME280;53413;49.878;8.142;2022-07-01T05:45:04;100041.13;;;21.86;57.70
66560;BME280;53413;49.878;8.142;2022-07-01T05:47:29;100053.09;;;22.13;56.24
66560;BME280;53413;49.878;8.142;2022-07-01T05:49:55;100055.84;;;22.33;54.83
66560;BME280;53413;49.878;8.142;2022-07-01T05:52:20;100055.13;;;22.62;54.72
66560;BME280;53413;49.878;8.142;2022-07-01T05:54:45;100065.03;;;24.18;51.29
66560;BME280;53413;49.878;8.142;2022-07-01T05:57:11;100049.66;;;27.23;44.99
66560;BME280;53413;49.878;8.142;2022-07-01T05:59:36;100061.88;;;29.74;39.07
66560;BME280;53413;49.878;8.142;2022-07-01T06:02:02;100079.38;;;29.78;37.52
66560;BME280;53413;49.878;8.142;2022-07-01T06:04:28;100088.00;;;29.36;37.78
66560;BME280;53413;49.878;8.142;2022-07-01T06:06:53;100086.28;;;29.11;38.15
66560;BME280;53413;49.878;8.142;2022-07-01T06:09:18;100094.31;;;28.56;38.64
66560;BME280;53413;49.878;8.142;2022-07-01T06:11:44;100104.50;;;27.96;39.83
66560;BME280;53413;49.878;8.142;2022-07-01T06:14:10;100091.91;;;27.64;39.72
66560;BME280;53413;49.878;8.142;2022-07-01T06:16:35;100096.09;;;27.91;40.02
66560;BME280;53413;49.878;8.142;2022-07-01T06:19:00;100097.44;;;27.87;39.12
66560;BME280;53413;49.878;8.142;2022-07-01T06:21:26;100103.03;;;27.61;39.81
66560;BME280;53413;49.878;8.142;2022-07-01T06:23:53;100113.47;;;26.96;40.90
66560;BME280;53413;49.878;8.142;2022-07-01T06:26:18;100115.47;;;26.25;42.37
66560;BME280;53413;49.878;8.142;2022-07-01T06:28:44;100103.34;;;25.76;44.02
66560;BME280;53413;49.878;8.142;2022-07-01T06:31:09;100080.28;;;25.47;44.89
66560;BME280;53413;49.878;8.142;2022-07-01T06:33:34;100087.84;;;25.16;45.50
66560;BME280;53413;49.878;8.142;2022-07-01T06:36:00;100091.31;;;24.80;46.67
66560;BME280;53413;49.878;8.142;2022-07-01T06:38:26;100102.16;;;24.41;47.31
66560;BME280;53413;49.878;8.142;2022-07-01T06:40:51;100106.50;;;23.94;48.14
66560;BME280;53413;49.878;8.142;2022-07-01T06:43:35;100122.00;;;23.61;48.59
66560;BME280;53413;49.878;8.142;2022-07-01T06:46:01;100116.53;;;23.43;49.06
66560;BME280;53413;49.878;8.142;2022-07-01T06:48:27;100112.56;;;23.38;49.40
66560;BME280;53413;49.878;8.142;2022-07-01T06:50:53;100112.84;;;23.34;49.55
66560;BME280;53413;49.878;8.142;2022-07-01T06:53:18;100131.41;;;23.26;49.97
66560;BME280;53413;49.878;8.142;2022-07-01T06:55:43;100135.56;;;23.19;50.19
66560;BME280;53413;49.878;8.142;2022-07-01T06:58:09;100143.28;;;23.02;50.36
66560;BME280;53413;49.878;8.142;2022-07-01T07:00:35;100138.31;;;22.88;50.67
66560;BME280;53413;49.878;8.142;2022-07-01T07:03:01;100137.13;;;22.71;51.83
66560;BME280;53413;49.878;8.142;2022-07-01T07:05:26;100139.59;;;22.53;51.74
66560;BME280;53413;49.878;8.142;2022-07-01T07:07:51;100142.41;;;22.40;51.49
66560;BME280;53413;49.878;8.142;2022-07-01T07:10:17;100147.59;;;22.32;51.23
66560;BME280;53413;49.878;8.142;2022-07-01T07:12:42;100155.88;;;22.50;51.71
66560;BME280;53413;49.878;8.142;2022-07-01T07:15:08;100165.97;;;22.77;50.86
66560;BME280;53413;49.878;8.142;2022-07-01T07:17:33;100160.31;;;23.01;50.51
66560;BME280;53413;49.878;8.142;2022-07-01T07:19:59;100165.50;;;23.03;50.92
66560;BME280;53413;49.878;8.142;2022-07-01T07:22:24;100170.13;;;23.01;50.97
66560;BME280;53413;49.878;8.142;2022-07-01T07:24:49;100182.84;;;22.78;51.42
66560;BME280;53413;49.878;8.142;2022-07-01T07:27:15;100177.97;;;22.62;52.10
66560;BME280;53413;49.878;8.142;2022-07-01T07:29:41;100178.19;;;22.49;51.62
66560;BME280;53413;49.878;8.142;2022-07-01T07:32:06;100170.78;;;22.31;52.21
66560;BME280;53413;49.878;8.142;2022-07-01T07:34:32;100183.78;;;22.03;52.18
66560;BME280;53413;49.878;8.142;2022-07-01T07:36:57;100198.91;;;21.81;52.12
66560;BME280;53413;49.878;8.142;2022-07-01T07:39:22;100204.28;;;21.70;53.62
66560;BME280;53413;49.878;8.142;2022-07-01T07:41:48;100202.84;;;21.55;53.68
66560;BME280;53413;49.878;8.142;2022-07-01T07:44:15;100194.34;;;21.49;53.75
66560;BME280;53413;49.878;8.142;2022-07-01T07:46:40;100190.88;;;21.37;53.85
66560;BME280;53413;49.878;8.142;2022-07-01T07:49:05;100189.66;;;21.30;54.04
66560;BME280;53413;49.878;8.142;2022-07-01T07:51:31;100179.72;;;21.32;54.94
66560;BME280;53413;49.878;8.142;2022-07-01T07:53:56;100181.19;;;21.36;55.22
66560;BME280;53413;49.878;8.142;2022-07-01T07:56:22;100180.97;;;21.28;55.71
66560;BME280;53413;49.878;8.142;2022-07-01T07:58:47;100175.72;;;21.38;55.29
66560;BME280;53413;49.878;8.142;2022-07-01T08:01:12;100180.66;;;21.54;55.26
66560;BME280;53413;49.878;8.142;2022-07-01T08:03:38;100162.06;;;21.75;54.38
66560;BME280;53413;49.878;8.142;2022-07-01T08:06:03;100145.88;;;22.09;52.91
66560;BME280;53413;49.878;8.142;2022-07-01T08:08:29;100147.72;;;22.51;52.49
66560;BME280;53413;49.878;8.142;2022-07-01T08:10:54;100155.44;;;22.85;51.41
66560;BME280;53413;49.878;8.142;2022-07-01T08:13:20;100170.03;;;23.02;50.99
66560;BME280;53413;49.878;8.142;2022-07-01T08:15:46;100179.25;;;23.19;50.86
66560;BME280;53413;49.878;8.142;2022-07-01T08:18:12;100175.88;;;23.27;50.12
66560;BME280;53413;49.878;8.142;2022-07-01T08:20:37;100173.22;;;23.27;49.58
66560;BME280;53413;49.878;8.142;2022-07-01T08:23:03;100149.41;;;23.24;49.50
66560;BME280;53413;49.878;8.142;2022-07-01T08:25:29;100142.09;;;23.36;49.84
66560;BME280;53413;49.878;8.142;2022-07-01T08:27:54;100133.81;;;23.68;48.83
66560;BME280;53413;49.878;8.142;2022-07-01T08:30:20;100130.56;;;23.94;47.27
66560;BME280;53413;49.878;8.142;2022-07-01T08:32:45;100127.22;;;24.02;47.23
66560;BME280;53413;49.878;8.142;2022-07-01T08:35:10;100142.13;;;23.95;46.81
66560;BME280;53413;49.878;8.142;2022-07-01T08:37:36;100138.59;;;23.94;47.45
66560;BME280;53413;49.878;8.142;2022-07-01T08:40:01;100139.16;;;23.88;47.54
66560;BME280;53413;49.878;8.142;2022-07-01T08:42:27;100153.44;;;23.98;46.97
66560;BME280;53413;49.878;8.142;2022-07-01T08:44:52;100170.00;;;23.92;47.12
66560;BME280;53413;49.878;8.142;2022-07-01T08:47:17;100195.41;;;24.08;47.64
66560;BME280;53413;49.878;8.142;2022-07-01T08:49:43;100208.03;;;24.45;46.34
66560;BME280;53413;49.878;8.142;2022-07-01T08:52:09;100206.94;;;24.85;45.93
66560;BME280;53413;49.878;8.142;2022-07-01T08:54:36;100220.72;;;25.00;44.82
66560;BME280;53413;49.878;8.142;2022-07-01T08:57:06;100221.59;;;24.91;45.12
66560;BME280;53413;49.878;8.142;2022-07-01T08:59:32;100221.22;;;24.86;45.58
66560;BME280;53413;49.878;8.142;2022-07-01T09:02:01;100223.72;;;24.87;46.30
66560;BME280;53413;49.878;8.142;2022-07-01T09:04:27;100220.91;;;24.89;45.46
66560;BME280;53413;49.878;8.142;2022-07-01T09:07:01;100211.28;;;24.96;45.41
66560;BME280;53413;49.878;8.142;2022-07-01T09:09:27;100209.56;;;25.05;43.90
66560;BME280;53413;49.878;8.142;2022-07-01T09:11:54;100214.59;;;25.08;44.67
66560;BME280;53413;49.878;8.142;2022-07-01T09:14:24;100217.44;;;25.07;44.61
66560;BME280;53413;49.878;8.142;2022-07-01T10:00:00;100223.13;;;33.81;28.02
66560;BME280;53413;49.878;8.142;2022-07-01T10:02:27;100222.03;;;34.83;26.90
66560;BME280;53413;49.878;8.142;2022-07-01T10:05:02;100224.19;;;36.04;25.11
66560;BME280;53413;49.878;8.142;2022-07-01T10:10:33;100231.13;;;33.96;28.12
66560;BME280;53413;49.878;8.142;2022-07-01T10:13:02;100226.75;;;33.33;28.80
66560;BME280;53413;49.878;8.142;2022-07-01T10:15:30;100232.78;;;35.37;26.40
66560;BME280;53413;49.878;8.142;2022-07-01T10:17:57;100227.81;;;35.20;26.26
66560;BME280;53413;49.878;8.142;2022-07-01T10:20:26;100234.69;;;34.57;27.32
66560;BME280;53413;49.878;8.142;2022-07-01T10:23:02;100236.69;;;33.61;28.37
66560;BME280;53413;49.878;8.142;2022-07-01T10:25:47;100232.16;;;32.84;29.67
66560;BME280;53413;49.878;8.142;2022-07-01T10:31:03;100237.59;;;32.84;29.32
66560;BME280;53413;49.878;8.142;2022-07-01T10:33:48;100230.81;;;33.09;28.07
66560;BME280;53413;49.878;8.142;2022-07-01T10:36:19;100234.88;;;32.84;28.81
66560;BME280;53413;49.878;8.142;2022-07-01T10:44:08;100239.94;;;31.36;30.19
66560;BME280;53413;49.878;8.142;2022-07-01T10:46:38;100238.75;;;31.38;31.82
66560;BME280;53413;49.878;8.142;2022-07-01T10:49:15;100231.28;;;31.25;32.01
66560;BME280;53413;49.878;8.142;2022-07-01T10:51:54;100232.03;;;31.34;31.61
66560;BME280;53413;49.878;8.142;2022-07-01T11:02:27;100222.97;;;31.63;29.83
66560;BME280;53413;49.878;8.142;2022-07-01T11:07:32;100222.97;;;31.42;30.92
66560;BME280;53413;49.878;8.142;2022-07-01T11:09:59;100220.56;;;31.54;29.95
66560;BME280;53413;49.878;8.142;2022-07-01T11:12:26;100221.66;;;31.38;30.83
66560;BME280;53413;49.878;8.142;2022-07-01T11:14:54;100229.13;;;31.36;30.80
66560;BME280;53413;49.878;8.142;2022-07-01T11:17:20;100227.59;;;30.96;31.30
66560;BME280;53413;49.878;8.142;2022-07-01T11:19:51;100228.97;;;30.77;31.42
66560;BME280;53413;49.878;8.142;2022-07-01T11:22:18;100231.16;;;30.44;31.91
66560;BME280;53413;49.878;8.142;2022-07-01T11:24:44;100227.09;;;30.24;30.82
66560;BME280;53413;49.878;8.142;2022-07-01T11:27:10;100222.38;;;30.41;32.09
66560;BME280;53413;49.878;8.142;2022-07-01T11:29:35;100224.41;;;30.39;30.68
66560;BME280;53413;49.878;8.142;2022-07-01T11:32:02;100219.44;;;30.66;31.12
66560;BME280;53413;49.878;8.142;2022-07-01T11:34:28;100207.88;;;30.88;29.95
66560;BME280;53413;49.878;8.142;2022-07-01T11:36:56;100211.69;;;31.08;31.96
66560;BME280;53413;49.878;8.142;2022-07-01T11:39:41;100217.03;;;30.71;30.50
66560;BME280;53413;49.878;8.142;2022-07-01T11:42:10;100212.03;;;30.45;31.98
66560;BME280;53413;49.878;8.142;2022-07-01T11:44:43;100220.25;;;30.14;32.70
66560;BME280;53413;49.878;8.142;2022-07-01T11:49:47;100213.75;;;29.53;33.99
66560;BME280;53413;49.878;8.142;2022-07-01T11:52:15;100207.63;;;29.36;33.55
66560;BME280;53413;49.878;8.142;2022-07-01T11:54:44;100213.41;;;29.56;33.50
66560;BME280;53413;49.878;8.142;2022-07-01T11:57:18;100210.25;;;29.99;32.57
66560;BME280;53413;49.878;8.142;2022-07-01T11:59:46;100210.22;;;30.37;32.12
66560;BME280;53413;49.878;8.142;2022-07-01T12:02:14;100207.69;;;30.59;33.52
66560;BME280;53413;49.878;8.142;2022-07-01T12:04:42;100203.00;;;30.53;30.42
66560;BME280;53413;49.878;8.142;2022-07-01T12:07:11;100200.97;;;30.70;29.92
66560;BME280;53413;49.878;8.142;2022-07-01T12:09:39;100197.44;;;30.69;29.85
66560;BME280;53413;49.878;8.142;2022-07-01T12:12:19;100199.38;;;31.06;29.49
66560;BME280;53413;49.878;8.142;2022-07-01T12:15:00;100198.44;;;30.98;29.57
66560;BME280;53413;49.878;8.142;2022-07-01T12:17:27;100196.59;;;30.84;29.86
66560;BME280;53413;49.878;8.142;2022-07-01T12:19:54;100201.09;;;30.23;29.69
66560;BME280;53413;49.878;8.142;2022-07-01T12:22:24;100196.28;;;29.41;31.06
66560;BME280;53413;49.878;8.142;2022-07-01T12:51:33;100205.47;;;28.75;33.54
66560;BME280;53413;49.878;8.142;2022-07-01T12:53:59;100209.84;;;28.68;33.60
66560;BME280;53413;49.878;8.142;2022-07-01T12:56:27;100222.22;;;28.37;34.60
66560;BME280;53413;49.878;8.142;2022-07-01T12:58:54;100232.78;;;28.06;34.81
66560;BME280;53413;49.878;8.142;2022-07-01T13:01:20;100234.97;;;27.94;34.94
66560;BME280;53413;49.878;8.142;2022-07-01T13:03:46;100239.84;;;27.82;36.13
66560;BME280;53413;49.878;8.142;2022-07-01T13:06:12;100232.72;;;27.73;37.23
66560;BME280;53413;49.878;8.142;2022-07-01T13:08:38;100238.09;;;27.56;38.41
66560;BME280;53413;49.878;8.142;2022-07-01T13:11:04;100234.63;;;27.29;39.52
66560;BME280;53413;49.878;8.142;2022-07-01T13:13:31;100230.66;;;27.07;39.14
66560;BME280;53413;49.878;8.142;2022-07-01T13:15:56;100226.69;;;26.85;40.76
66560;BME280;53413;49.878;8.142;2022-07-01T13:18:22;100226.91;;;26.92;42.25
66560;BME280;53413;49.878;8.142;2022-07-01T13:20:47;100225.13;;;27.09;42.32
66560;BME280;53413;49.878;8.142;2022-07-01T13:23:13;100228.09;;;27.40;42.92
66560;BME280;53413;49.878;8.142;2022-07-01T13:25:41;100232.63;;;27.99;42.87
66560;BME280;53413;49.878;8.142;2022-07-01T13:28:09;100225.19;;;28.59;40.86
66560;BME280;53413;49.878;8.142;2022-07-01T13:30:35;100220.13;;;29.21;35.11
66560;BME280;53413;49.878;8.142;2022-07-01T13:33:02;100220.19;;;29.75;35.40
66560;BME280;53413;49.878;8.142;2022-07-01T13:35:27;100213.97;;;29.98;35.55
66560;BME280;53413;49.878;8.142;2022-07-01T13:37:53;100219.03;;;29.93;32.74
66560;BME280;53413;49.878;8.142;2022-07-01T13:40:18;100209.00;;;29.78;32.77
66560;BME280;53413;49.878;8.142;2022-07-01T13:42:44;100204.53;;;29.71;32.46
66560;BME280;53413;49.878;8.142;2022-07-01T13:45:09;100218.41;;;29.36;33.00
66560;BME280;53413;49.878;8.142;2022-07-01T13:47:35;100210.53;;;28.78;31.80
66560;BME280;53413;49.878;8.142;2022-07-01T13:50:01;100213.44;;;28.44;33.30
66560;BME280;53413;49.878;8.142;2022-07-01T13:52:27;100216.31;;;28.25;33.72
66560;BME280;53413;49.878;8.142;2022-07-01T13:54:57;100223.00;;;27.96;32.19
66560;BME280;53413;49.878;8.142;2022-07-01T13:57:26;100223.31;;;27.85;32.12
66560;BME280;53413;49.878;8.142;2022-07-01T13:59:52;100228.53;;;27.62;35.97
66560;BME280;53413;49.878;8.142;2022-07-01T14:02:18;100226.63;;;27.46;35.00
66560;BME280;53413;49.878;8.142;2022-07-01T14:04:47;100229.63;;;27.43;36.98
66560;BME280;53413;49.878;8.142;2022-07-01T14:07:13;100231.59;;;27.32;32.63
66560;BME280;53413;49.878;8.142;2022-07-01T14:09:38;100233.03;;;27.53;34.30
66560;BME280;53413;49.878;8.142;2022-07-01T14:12:06;100229.75;;;27.84;35.67
66560;BME280;53413;49.878;8.142;2022-07-01T14:14:32;100234.16;;;28.10;33.41
66560;BME280;53413;49.878;8.142;2022-07-01T14:16:57;100237.03;;;28.33;33.34
66560;BME280;53413;49.878;8.142;2022-07-01T14:19:22;100239.72;;;28.50;31.68
66560;BME280;53413;49.878;8.142;2022-07-01T14:21:48;100240.53;;;28.58;31.52
66560;BME280;53413;49.878;8.142;2022-07-01T14:24:13;100236.44;;;28.71;33.17
66560;BME280;53413;49.878;8.142;2022-07-01T14:26:38;100237.28;;;28.96;31.77